Bryantville, Massachusetts
Current Conditions -  °F | °C
As of 7:52 PM on Saturday 25 Oct 2014 (Local Time) from KPYM Reporting Station
Clear Clear  
Wind Chill: 12°   Ceiling: Unl
Heat Index: 12°   Visibility: 10mi
Dew Point:   Wind: 7mph
Humidity: 74%   Direction: 210°SSW
Pressure: 29.6"   Gusts: NA
Location:  42.04°N, 70.84°W
Report Text: KPYM 252352Z AUTO 21006KT 10SM CLR 12/07 A2960 RMK AO2 SLP025 T01170072 10183 20117 52002
Loading
Personal Weather Stations






























Interactive Weather Map
Tropical Storm Tracking
New forecast layout! Learn more

10-Day Weather Forecast

Advertisements
Track Severe Weather on mobile